Time;durP1;ratioP1;P1;durP2;ratioP2;P2;SDS_P1;SDS_P2;PMS_P1;PMS_P2;Temp;Humidity;BMP_temperature;BMP_pressure;BME280_temperature;BME280_humidity;BME280_pressure;Samples;Min_cycle;Max_cycle;Signal;HPM_P1;HPM_P2
2022/01/05 00:02:19;;;;;;;56.83;26.17;;;;;;;3.31;nan;-23908.56;5057097;28;20171;-70
2022/01/05 00:04:45;;;;;;;51.93;26.80;;;;;;;3.01;nan;-23900.16;5057240;28;20203;-67
2022/01/05 00:07:12;;;;;;;53.40;28.17;;;;;;;2.73;nan;-23892.31;5057664;28;20609;-68
2022/01/05 00:09:37;;;;;;;49.30;28.03;;;;;;;3.13;nan;-23903.56;5057309;28;20511;-68
2022/01/05 00:12:03;;;;;;;49.33;28.40;;;;;;;2.67;nan;-23890.59;5057388;28;20194;-67
2022/01/05 00:14:28;;;;;;;44.77;25.30;;;;;;;3.20;nan;-23905.41;5057176;28;20625;-68
2022/01/05 00:16:54;;;;;;;41.70;24.17;;;;;;;2.59;nan;-23888.44;5057463;28;20175;-67
2022/01/05 00:19:19;;;;;;;43.97;24.67;;;;;;;3.43;nan;-23912.13;5057018;28;20182;-67
2022/01/05 00:21:45;;;;;;;43.60;25.03;;;;;;;3.39;nan;-23910.84;5053210;28;20220;-67
2022/01/05 00:24:10;;;;;;;43.73;25.30;;;;;;;2.88;nan;-23896.44;5054030;28;20210;-67
2022/01/05 00:26:36;;;;;;;48.47;27.00;;;;;;;3.25;nan;-23906.84;5053988;28;20210;-68
2022/01/05 00:29:02;;;;;;;45.27;26.93;;;;;;;2.89;nan;-23896.72;5053942;28;20185;-69
2022/01/05 00:31:28;;;;;;;45.50;27.27;;;;;;;2.99;nan;-23899.72;5054071;28;20171;-68
2022/01/05 00:33:54;;;;;;;53.10;28.10;;;;;;;2.69;nan;-23891.16;5036009;28;20217;-68
2022/01/05 00:36:20;;;;;;;48.27;26.97;;;;;;;3.06;nan;-23901.56;5054330;28;20174;-66
2022/01/05 00:38:45;;;;;;;43.23;25.13;;;;;;;2.48;nan;-23885.31;5053665;28;20174;-67
2022/01/05 00:41:12;;;;;;;44.83;24.73;;;;;;;2.86;nan;-23896.00;5053618;28;20205;-68
2022/01/05 00:43:37;;;;;;;48.03;24.87;;;;;;;2.63;nan;-23889.44;5054074;28;20174;-67
2022/01/05 00:46:04;;;;;;;44.57;24.60;;;;;;;2.04;nan;-23872.88;5053364;28;20199;-67
2022/01/05 00:48:32;;;;;;;38.73;22.87;;;;;;;3.04;nan;-23901.16;5053731;28;20619;-67
2022/01/05 00:51:00;;;;;;;40.03;22.60;;;;;;;3.07;nan;-23901.84;5035468;28;20386;-67
2022/01/05 00:53:26;;;;;;;41.23;22.80;;;;;;;3.18;nan;-23905.00;5052744;28;20648;-68
2022/01/05 00:55:52;;;;;;;42.03;22.50;;;;;;;3.27;nan;-23907.56;5053108;28;20261;-67
2022/01/05 00:58:17;;;;;;;40.17;23.37;;;;;;;3.10;nan;-23902.84;5047104;28;20270;-67
2022/01/05 01:00:43;;;;;;;40.93;24.60;;;;;;;2.90;nan;-23897.00;5050998;28;20634;-67
2022/01/05 01:03:08;;;;;;;45.60;26.00;;;;;;;2.89;nan;-23896.88;5035018;28;20631;-67
2022/01/05 01:05:34;;;;;;;44.07;26.03;;;;;;;2.68;nan;-23890.88;5053002;28;20220;-67
2022/01/05 01:07:59;;;;;;;42.60;24.17;;;;;;;3.08;nan;-23902.28;5053005;28;20201;-66
2022/01/05 01:10:25;;;;;;;40.17;23.73;;;;;;;3.03;nan;-23900.88;5052971;28;20228;-68
2022/01/05 01:12:50;;;;;;;44.60;25.40;;;;;;;2.47;nan;-23885.03;5053075;28;20178;-68
2022/01/05 01:15:16;;;;;;;45.20;24.70;;;;;;;3.01;nan;-23900.16;5052525;28;20178;-68
2022/01/05 01:17:41;;;;;;;45.23;25.67;;;;;;;2.81;nan;-23894.44;5052820;28;20190;-68
2022/01/05 01:20:07;;;;;;;45.77;24.83;;;;;;;3.06;nan;-23901.56;5052821;28;20175;-68
2022/01/05 01:22:34;;;;;;;49.07;25.27;;;;;;;2.63;nan;-23889.59;5034826;28;20579;-68
2022/01/05 01:24:59;;;;;;;44.70;25.57;;;;;;;3.05;nan;-23901.44;5051285;28;20195;-67
2022/01/05 01:27:25;;;;;;;45.57;26.03;;;;;;;2.96;nan;-23898.72;5051362;28;20182;-67
2022/01/05 01:29:50;;;;;;;43.17;24.73;;;;;;;2.95;nan;-23898.44;5051295;28;20270;-68
2022/01/05 01:32:16;;;;;;;43.63;24.77;;;;;;;3.36;nan;-23910.00;5051002;28;20181;-68
2022/01/05 01:34:41;;;;;;;46.70;25.50;;;;;;;2.94;nan;-23898.16;5051997;28;20178;-67
2022/01/05 01:37:07;;;;;;;45.03;25.10;;;;;;;3.33;nan;-23909.13;5052365;28;20573;-68
2022/01/05 01:39:32;;;;;;;42.67;24.23;;;;;;;2.72;nan;-23891.88;5051655;28;20189;-68
2022/01/05 01:41:57;;;;;;;41.93;24.47;;;;;;;2.74;nan;-23892.44;5051785;28;20224;-68
2022/01/05 01:44:23;;;;;;;45.67;24.27;;;;;;;3.23;nan;-23906.44;5051847;28;20526;-68
2022/01/05 01:46:49;;;;;;;43.97;23.73;;;;;;;3.34;nan;-23909.41;5052178;28;20272;-72
2022/01/05 01:49:18;;;;;;;49.63;23.43;;;;;;;3.13;nan;-23903.44;5034689;28;20664;-70
2022/01/05 01:51:43;;;;;;;42.80;23.67;;;;;;;3.18;nan;-23905.00;5051863;28;20223;-68
2022/01/05 01:54:13;;;;;;;38.57;23.80;;;;;;;3.13;nan;-23903.56;5052306;28;20590;-72
2022/01/05 01:56:39;;;;;;;41.80;24.47;;;;;;;2.07;nan;-23873.59;5053295;28;20201;-68
2022/01/05 01:59:07;;;;;;;38.83;23.30;;;;;;;2.35;nan;-23881.59;5052398;28;20206;-68
2022/01/05 02:01:32;;;;;;;41.27;23.97;;;;;;;2.20;nan;-23877.47;5045975;28;20229;-67
2022/01/05 02:03:58;;;;;;;39.87;22.60;;;;;;;2.45;nan;-23884.44;5052233;28;20186;-67
2022/01/05 02:06:23;;;;;;;42.97;24.10;;;;;;;1.94;nan;-23869.88;5052161;28;20277;-67
2022/01/05 02:08:49;;;;;;;48.53;25.40;;;;;;;2.55;nan;-23887.31;5052552;28;20243;-67
2022/01/05 02:11:14;;;;;;;43.70;25.13;;;;;;;2.66;nan;-23890.44;5052218;28;20240;-67
2022/01/05 02:13:41;;;;;;;41.83;22.37;;;;;;;2.37;nan;-23882.03;5051978;28;20185;-67
2022/01/05 02:16:07;;;;;;;40.57;23.70;;;;;;;1.85;nan;-23867.47;5052114;28;20169;-67
2022/01/05 02:21:07;;;;;;;40.60;22.77;;;;;;;2.49;nan;-23885.44;5051857;28;20187;-67
2022/01/05 02:23:36;;;;;;;37.80;21.50;;;;;;;2.18;nan;-23876.75;5051502;28;20631;-68
2022/01/05 02:26:06;;;;;;;36.07;21.60;;;;;;;2.23;nan;-23878.16;5051227;28;20192;-68
2022/01/05 02:28:32;;;;;;;42.60;23.43;;;;;;;2.14;nan;-23875.75;5051872;28;20288;-68
2022/01/05 02:30:58;;;;;;;42.63;23.37;;;;;;;2.25;nan;-23878.75;5051743;28;20199;-67
2022/01/05 02:33:25;;;;;;;43.47;24.00;;;;;;;2.23;nan;-23878.31;5051530;28;20266;-67
2022/01/05 02:35:52;;;;;;;41.00;23.80;;;;;;;1.73;nan;-23864.16;5033614;28;20552;-67
2022/01/05 02:38:22;;;;;;;41.30;22.93;;;;;;;2.32;nan;-23880.75;5051453;28;20265;-67
2022/01/05 02:40:49;;;;;;;37.13;22.27;;;;;;;1.84;nan;-23867.19;5050929;28;20176;-68
2022/01/05 02:43:14;;;;;;;41.83;23.43;;;;;;;1.99;nan;-23871.47;5051493;28;20174;-68
2022/01/05 02:45:40;;;;;;;42.43;22.40;;;;;;;2.40;nan;-23882.88;5051325;28;20214;-67
2022/01/05 02:48:06;;;;;;;38.30;21.40;;;;;;;2.09;nan;-23874.16;5051770;28;20175;-67
2022/01/05 02:50:31;;;;;;;42.67;20.97;;;;;;;1.87;nan;-23868.03;5050809;28;20546;-68
2022/01/05 02:52:56;;;;;;;35.40;21.17;;;;;;;2.04;nan;-23872.75;5050940;28;20174;-68
2022/01/05 02:55:23;;;;;;;35.53;20.87;;;;;;;2.38;nan;-23882.44;5051131;28;20278;-68
2022/01/05 02:57:49;;;;;;;35.33;19.70;;;;;;;2.38;nan;-23882.44;5051614;28;20182;-67
2022/01/05 03:00:16;;;;;;;32.77;19.67;;;;;;;2.33;nan;-23881.03;5051397;28;20182;-68
2022/01/05 03:02:42;;;;;;;38.27;20.40;;;;;;;2.41;nan;-23883.16;5051333;28;20201;-68
2022/01/05 03:05:09;;;;;;;32.23;20.43;;;;;;;2.06;nan;-23873.31;5051430;28;20285;-68
2022/01/05 03:07:39;;;;;;;37.17;21.70;;;;;;;2.40;nan;-23882.88;5051192;28;20175;-69
2022/01/05 03:10:06;;;;;;;37.70;22.43;;;;;;;2.45;nan;-23884.44;5051218;28;20191;-67
2022/01/05 03:12:31;;;;;;;35.47;21.00;;;;;;;1.89;nan;-23868.59;5051393;28;20632;-69
2022/01/05 03:14:57;;;;;;;35.97;20.97;;;;;;;2.41;nan;-23883.16;5051093;28;20187;-67
2022/01/05 03:17:22;;;;;;;37.73;22.83;;;;;;;2.29;nan;-23879.75;5051422;28;20204;-66
2022/01/05 03:19:48;;;;;;;38.83;22.00;;;;;;;2.26;nan;-23879.03;5051364;28;20645;-67
2022/01/05 03:22:13;;;;;;;41.07;23.53;;;;;;;2.16;nan;-23876.31;5051214;28;20565;-67
2022/01/05 03:24:39;;;;;;;45.50;24.80;;;;;;;1.68;nan;-23862.59;5051128;28;20289;-68
2022/01/05 03:27:04;;;;;;;48.23;26.17;;;;;;;2.05;nan;-23873.16;5051309;28;20686;-67
2022/01/05 03:29:30;;;;;;;49.43;27.80;;;;;;;2.23;nan;-23878.16;5051041;28;20184;-68
2022/01/05 03:31:55;;;;;;;47.77;25.57;;;;;;;1.98;nan;-23871.03;5032963;28;20257;-67
2022/01/05 03:34:21;;;;;;;45.57;25.43;;;;;;;1.50;nan;-23857.47;5051571;28;20273;-68
2022/01/05 03:36:48;;;;;;;40.87;23.63;;;;;;;1.85;nan;-23867.47;5050875;28;20555;-68
2022/01/05 03:39:13;;;;;;;45.53;22.90;;;;;;;1.31;nan;-23852.31;5050868;28;20165;-68
2022/01/05 03:41:39;;;;;;;40.80;21.97;;;;;;;1.73;nan;-23864.16;5051004;28;20234;-69
2022/01/05 03:44:04;;;;;;;39.37;20.53;;;;;;;1.40;nan;-23854.75;5050887;28;20719;-68
2022/01/05 03:46:30;;;;;;;31.93;18.37;;;;;;;1.47;nan;-23856.75;5050896;28;20207;-68
2022/01/05 03:48:55;;;;;;;35.10;17.90;;;;;;;1.81;nan;-23866.31;5051251;28;20180;-67
2022/01/05 03:51:21;;;;;;;31.77;17.97;;;;;;;1.61;nan;-23860.75;5050184;28;20248;-68
2022/01/05 03:53:46;;;;;;;33.37;17.30;;;;;;;1.67;nan;-23862.31;5050434;28;20297;-68
2022/01/05 03:56:12;;;;;;;27.43;16.73;;;;;;;1.86;nan;-23867.59;5051911;28;20240;-67
2022/01/05 03:58:37;;;;;;;26.93;16.90;;;;;;;1.10;nan;-23846.16;5054478;28;20170;-67
2022/01/05 04:01:03;;;;;;;30.73;17.67;;;;;;;1.45;nan;-23856.16;5050300;28;20189;-68
2022/01/05 04:03:28;;;;;;;33.33;18.40;;;;;;;0.91;nan;-23840.88;5049421;28;20619;-67
2022/01/05 04:05:54;;;;;;;31.20;15.77;;;;;;;1.43;nan;-23855.59;5054404;28;20304;-68
2022/01/05 04:08:19;;;;;;;30.13;16.63;;;;;;;1.40;nan;-23854.59;5053939;28;20203;-68
2022/01/05 04:10:45;;;;;;;31.27;16.90;;;;;;;1.49;nan;-23857.16;5036686;28;20218;-67
2022/01/05 04:13:10;;;;;;;31.73;16.67;;;;;;;1.25;nan;-23850.59;5054719;28;20177;-67
2022/01/05 04:15:36;;;;;;;30.07;16.50;;;;;;;1.55;nan;-23859.03;5054266;28;20725;-67
2022/01/05 04:18:01;;;;;;;28.60;16.67;;;;;;;1.70;nan;-23863.16;5054434;28;20300;-67
2022/01/05 04:20:27;;;;;;;27.53;16.33;;;;;;;1.80;nan;-23865.88;5054383;28;20511;-67
2022/01/05 04:22:52;;;;;;;29.73;16.17;;;;;;;1.38;nan;-23854.03;5054101;28;20197;-67
2022/01/05 04:25:17;;;;;;;33.20;17.83;;;;;;;1.72;nan;-23863.75;5049855;28;20206;-67
2022/01/05 04:27:43;;;;;;;45.17;23.40;;;;;;;1.70;nan;-23863.16;5053594;28;20191;-68
2022/01/05 04:30:10;;;;;;;39.40;22.63;;;;;;;1.29;nan;-23851.75;5053444;28;20194;-67
2022/01/05 04:32:36;;;;;;;34.50;20.23;;;;;;;1.39;nan;-23854.44;5053345;28;20180;-68
2022/01/05 04:35:03;;;;;;;31.73;18.67;;;;;;;1.11;nan;-23846.59;5053606;28;20175;-68
2022/01/05 04:37:31;;;;;;;33.33;18.60;;;;;;;1.45;nan;-23856.03;5053486;28;20168;-67
2022/01/05 04:39:57;;;;;;;36.60;18.77;;;;;;;1.34;nan;-23853.16;5053623;28;20168;-68
2022/01/05 04:42:22;;;;;;;36.57;18.20;;;;;;;1.37;nan;-23853.88;5053214;28;20180;-68
2022/01/05 04:44:48;;;;;;;37.43;19.83;;;;;;;1.49;nan;-23857.31;5052563;28;20175;-67
2022/01/05 04:47:13;;;;;;;33.53;18.17;;;;;;;1.47;nan;-23856.75;5053247;28;20171;-67
2022/01/05 04:49:39;;;;;;;29.90;16.60;;;;;;;1.45;nan;-23856.16;5053080;28;20178;-67
2022/01/05 04:52:05;;;;;;;33.93;19.13;;;;;;;1.10;nan;-23846.16;5052782;28;20222;-67
2022/01/05 04:54:31;;;;;;;31.33;17.47;;;;;;;0.98;nan;-23842.72;5052850;28;20261;-67
2022/01/05 04:56:56;;;;;;;39.57;19.00;;;;;;;1.05;nan;-23844.88;5050523;28;20635;-67
2022/01/05 04:59:21;;;;;;;37.13;21.60;;;;;;;1.47;nan;-23856.59;5051094;28;20176;-67
2022/01/05 05:01:47;;;;;;;35.10;20.10;;;;;;;1.27;nan;-23851.16;5052096;28;20175;-67
2022/01/05 05:04:12;;;;;;;32.83;17.47;;;;;;;1.39;nan;-23854.44;5031442;28;20219;-67
2022/01/05 05:06:38;;;;;;;29.93;17.23;;;;;;;1.34;nan;-23853.16;5051023;28;20231;-68
2022/01/05 05:09:03;;;;;;;29.03;17.00;;;;;;;1.38;nan;-23854.16;5043235;28;20195;-68
2022/01/05 05:11:29;;;;;;;29.47;18.07;;;;;;;1.12;nan;-23846.72;5039572;28;20263;-70
2022/01/05 05:13:54;;;;;;;31.57;17.37;;;;;;;0.87;nan;-23839.72;5044866;28;20642;-68
2022/01/05 05:16:20;;;;;;;32.73;18.97;;;;;;;1.17;nan;-23848.16;5047446;28;20256;-70
2022/01/05 05:18:46;;;;;;;30.93;18.07;;;;;;;1.03;nan;-23844.16;5049638;28;20236;-71
2022/01/05 05:21:11;;;;;;;33.03;17.37;;;;;;;1.07;nan;-23845.44;5039862;28;20199;-69
2022/01/05 05:23:37;;;;;;;30.50;18.17;;;;;;;1.02;nan;-23843.88;5052423;28;20636;-69
2022/01/05 05:26:02;;;;;;;32.27;19.10;;;;;;;0.37;nan;-23825.56;5052947;28;20213;-68
2022/01/05 05:28:28;;;;;;;33.53;18.37;;;;;;;0.82;nan;-23838.44;5053142;28;20183;-69
2022/01/05 05:30:53;;;;;;;39.00;20.17;;;;;;;0.74;nan;-23836.16;5052805;28;20560;-68
2022/01/05 05:33:19;;;;;;;36.90;20.30;;;;;;;1.23;nan;-23849.88;5052645;28;20205;-68
2022/01/05 05:35:44;;;;;;;36.77;19.77;;;;;;;0.91;nan;-23840.72;5052509;28;20588;-67
2022/01/05 05:38:11;;;;;;;36.03;20.10;;;;;;;0.98;nan;-23842.72;5052468;28;20596;-68
2022/01/05 05:40:37;;;;;;;40.23;20.90;;;;;;;1.12;nan;-23846.72;5052482;28;20165;-67
2022/01/05 05:43:03;;;;;;;37.93;20.90;;;;;;;1.26;nan;-23850.72;5052650;28;20221;-67
2022/01/05 05:45:28;;;;;;;44.53;23.57;;;;;;;0.87;nan;-23839.88;5034353;28;20281;-69
2022/01/05 05:47:54;;;;;;;56.13;26.57;;;;;;;0.95;nan;-23841.88;5034343;28;20176;-67
2022/01/05 05:50:19;;;;;;;48.27;26.90;;;;;;;1.41;nan;-23855.03;5051866;28;20621;-68
2022/01/05 05:52:45;;;;;;;43.30;24.13;;;;;;;1.43;nan;-23855.47;5052424;28;20175;-68
2022/01/05 05:55:10;;;;;;;49.90;24.93;;;;;;;1.12;nan;-23846.72;5052270;28;20182;-67
2022/01/05 05:57:36;;;;;;;47.77;24.57;;;;;;;0.66;nan;-23833.84;5052128;28;20270;-69
2022/01/05 06:00:03;;;;;;;48.20;25.20;;;;;;;1.00;nan;-23843.44;5052701;28;20174;-68
2022/01/05 06:02:29;;;;;;;48.70;25.87;;;;;;;0.48;nan;-23828.72;5052259;28;20171;-68
2022/01/05 06:04:54;;;;;;;44.90;25.23;;;;;;;0.76;nan;-23836.72;5052255;28;20281;-66
2022/01/05 06:07:20;;;;;;;44.37;24.53;;;;;;;1.14;nan;-23847.44;5052186;28;20168;-70
2022/01/05 06:09:45;;;;;;;46.43;24.30;;;;;;;0.59;nan;-23831.72;5052117;28;20224;-69
2022/01/05 06:12:10;;;;;;;45.03;23.93;;;;;;;0.98;nan;-23842.72;5052236;28;20283;-69
2022/01/05 06:14:36;;;;;;;43.47;22.70;;;;;;;1.08;nan;-23845.59;5051796;28;20263;-67
2022/01/05 06:17:01;;;;;;;37.10;21.27;;;;;;;0.98;nan;-23842.72;5052200;28;20177;-69
2022/01/05 06:19:27;;;;;;;42.60;23.43;;;;;;;0.69;nan;-23834.72;5050522;28;20175;-68
2022/01/05 06:21:52;;;;;;;45.37;23.43;;;;;;;0.75;nan;-23836.44;5052331;28;20222;-68
2022/01/05 06:24:18;;;;;;;43.13;23.53;;;;;;;0.89;nan;-23840.44;5051627;28;20166;-67
2022/01/05 06:26:44;;;;;;;43.63;22.97;;;;;;;0.93;nan;-23841.44;5051576;28;20286;-66
2022/01/05 06:29:12;;;;;;;45.40;23.33;;;;;;;1.05;nan;-23844.88;5050170;28;20689;-68
2022/01/05 06:31:38;;;;;;;44.10;23.03;;;;;;;1.19;nan;-23848.88;5051124;28;20189;-68
2022/01/05 06:34:04;;;;;;;40.63;21.83;;;;;;;1.73;nan;-23864.16;5033125;28;20548;-69
2022/01/05 06:36:29;;;;;;;41.57;20.97;;;;;;;1.62;nan;-23860.88;5050932;28;20574;-68
2022/01/05 06:38:54;;;;;;;46.43;22.27;;;;;;;1.66;nan;-23862.19;5050789;28;20182;-67
2022/01/05 06:41:20;;;;;;;43.17;23.07;;;;;;;2.07;nan;-23873.59;5051109;28;20255;-71
2022/01/05 06:43:45;;;;;;;37.57;21.30;;;;;;;2.19;nan;-23877.16;5051632;28;20181;-67
2022/01/05 06:46:10;;;;;;;35.43;17.80;;;;;;;2.12;nan;-23875.16;5050770;28;20212;-69
2022/01/05 06:48:36;;;;;;;43.63;21.77;;;;;;;2.09;nan;-23874.31;5051073;28;20175;-68
2022/01/05 06:51:01;;;;;;;30.03;18.57;;;;;;;1.99;nan;-23871.47;5051277;28;20214;-68
2022/01/05 06:53:27;;;;;;;28.17;16.80;;;;;;;2.16;nan;-23876.16;5051063;28;20174;-69
2022/01/05 06:55:53;;;;;;;31.73;18.50;;;;;;;1.66;nan;-23862.19;5051056;28;20181;-68
2022/01/05 06:58:19;;;;;;;31.83;16.97;;;;;;;2.33;nan;-23881.03;5051123;28;20178;-66
2022/01/05 07:00:44;;;;;;;32.17;17.73;;;;;;;2.44;nan;-23884.03;5050626;28;20178;-67
2022/01/05 07:03:11;;;;;;;33.80;18.53;;;;;;;2.43;nan;-23883.88;5050665;28;20178;-67
2022/01/05 07:05:36;;;;;;;38.30;19.23;;;;;;;2.53;nan;-23886.75;5032774;28;20259;-68
2022/01/05 07:08:02;;;;;;;39.90;21.00;;;;;;;2.03;nan;-23872.47;5032896;28;20622;-68
2022/01/05 07:10:28;;;;;;;36.90;21.17;;;;;;;2.56;nan;-23887.59;5033047;28;20681;-71
2022/01/05 07:12:53;;;;;;;38.60;22.97;;;;;;;2.67;nan;-23890.72;5050621;28;20174;-68
2022/01/05 07:15:18;;;;;;;41.57;24.10;;;;;;;2.91;nan;-23897.28;5051317;28;20179;-66
2022/01/05 07:17:44;;;;;;;41.60;24.63;;;;;;;3.00;nan;-23900.00;5050179;28;20268;-67
2022/01/05 07:20:10;;;;;;;44.37;24.50;;;;;;;3.12;nan;-23903.28;5051028;28;20221;-73
2022/01/05 07:22:36;;;;;;;40.80;24.17;;;;;;;3.27;nan;-23907.41;5050974;28;20171;-68
2022/01/05 07:25:03;;;;;;;41.43;24.20;;;;;;;2.95;nan;-23898.44;5050670;28;20681;-68
2022/01/05 07:27:28;;;;;;;55.87;25.30;;;;;;;3.02;nan;-23900.44;5050514;28;20175;-68
2022/01/05 07:29:54;;;;;;;42.20;24.03;;;;;;;2.95;nan;-23898.44;5031187;28;20561;-69
2022/01/05 07:32:19;;;;;;;42.53;24.43;;;;;;;3.80;nan;-23922.38;5033784;28;20175;-68
2022/01/05 07:34:44;;;;;;;42.17;25.30;;;;;;;3.48;nan;-23913.41;5034140;28;20264;-68
2022/01/05 07:37:10;;;;;;;46.13;26.20;;;;;;;3.62;nan;-23917.25;5033628;28;20174;-69
2022/01/05 07:39:36;;;;;;;46.40;25.83;;;;;;;4.09;nan;-23930.50;5047403;28;20672;-67
2022/01/05 07:42:02;;;;;;;46.87;27.60;;;;;;;3.66;nan;-23918.41;5032317;28;20190;-67
2022/01/05 07:44:27;;;;;;;45.50;25.67;;;;;;;3.96;nan;-23926.94;5039771;28;20170;-68
2022/01/05 07:46:53;;;;;;;41.50;24.07;;;;;;;4.19;nan;-23933.50;5054226;28;20217;-68
2022/01/05 07:49:18;;;;;;;45.00;24.80;;;;;;;3.96;nan;-23926.94;5054216;28;20198;-69
2022/01/05 07:51:44;;;;;;;36.43;20.90;;;;;;;4.70;nan;-23947.72;5054126;28;20236;-68
2022/01/05 07:54:09;;;;;;;40.43;22.47;;;;;;;4.47;nan;-23941.31;5053057;28;20540;-67
2022/01/05 07:56:35;;;;;;;34.73;20.97;;;;;;;4.54;nan;-23943.19;5052716;28;20308;-68
2022/01/05 07:59:00;;;;;;;36.03;20.80;;;;;;;4.97;nan;-23955.28;5034651;28;20219;-61
2022/01/05 08:01:26;;;;;;;38.00;22.80;;;;;;;4.78;nan;-23950.16;5052647;28;20197;-62
2022/01/05 08:03:51;;;;;;;35.60;20.53;;;;;;;5.30;nan;-23964.66;5053091;28;20174;-62
2022/01/05 08:06:20;;;;;;;32.20;19.20;;;;;;;5.14;nan;-23960.09;5052587;28;20285;-63
2022/01/05 08:08:45;;;;;;;35.80;19.60;;;;;;;5.40;nan;-23967.50;5035447;28;20240;-61
2022/01/05 08:11:12;;;;;;;28.67;18.03;;;;;;;5.74;nan;-23977.16;5053804;28;20175;-61
2022/01/05 08:13:38;;;;;;;28.30;18.27;;;;;;;5.86;nan;-23980.44;5046005;28;20273;-62
2022/01/05 08:16:04;;;;;;;36.73;19.17;;;;;;;5.61;nan;-23973.47;5049253;28;20266;-63
2022/01/05 08:18:29;;;;;;;35.50;21.07;;;;;;;6.17;nan;-23989.25;5052927;28;20182;-61
2022/01/05 08:20:55;;;;;;;37.83;20.80;;;;;;;6.12;nan;-23987.69;5044100;28;20199;-63
2022/01/05 08:23:22;;;;;;;29.80;19.53;;;;;;;5.97;nan;-23983.56;5048913;28;20659;-62
2022/01/05 08:25:49;;;;;;;29.10;18.37;;;;;;;6.27;nan;-23991.94;5054296;28;20691;-63
2022/01/05 08:28:16;;;;;;;28.73;18.73;;;;;;;6.54;nan;-23999.47;5054290;28;20171;-63
2022/01/05 08:30:44;;;;;;;36.20;17.80;;;;;;;6.65;nan;-24002.72;5053967;28;20650;-63
2022/01/05 08:33:10;;;;;;;29.13;18.97;;;;;;;6.61;nan;-24001.47;5054635;28;20175;-63
2022/01/05 08:35:35;;;;;;;30.87;18.67;;;;;;;6.65;nan;-24002.59;5054306;28;20190;-63
2022/01/05 08:38:01;;;;;;;32.03;18.93;;;;;;;6.67;nan;-24003.16;5051497;28;20603;-62
2022/01/05 08:40:27;;;;;;;31.23;19.87;;;;;;;6.28;nan;-23992.09;5049771;28;20681;-63
2022/01/05 08:42:55;;;;;;;31.60;19.40;;;;;;;6.86;nan;-24008.41;5053166;28;20215;-63
2022/01/05 08:45:21;;;;;;;33.40;20.27;;;;;;;6.55;nan;-23999.91;5053550;28;20202;-62
2022/01/05 08:47:49;;;;;;;29.47;18.77;;;;;;;6.79;nan;-24006.56;5053871;28;20198;-61
2022/01/05 08:50:21;;;;;;;27.43;17.00;;;;;;;7.03;nan;-24013.22;5053823;28;20181;-62
2022/01/05 08:52:47;;;;;;;27.83;17.37;;;;;;;7.33;nan;-24021.75;5053857;28;20178;-62
2022/01/05 08:55:15;;;;;;;26.13;16.47;;;;;;;6.71;nan;-24004.28;5053976;28;20557;-62
2022/01/05 08:57:42;;;;;;;28.37;15.27;;;;;;;7.11;nan;-24015.50;5052858;28;20170;-62
2022/01/05 09:00:08;;;;;;;24.40;15.47;;;;;;;7.77;nan;-24033.94;5053138;28;20170;-63
2022/01/05 09:02:34;;;;;;;25.83;16.07;;;;;;;7.79;nan;-24034.50;5053493;28;20198;-63
2022/01/05 09:04:59;;;;;;;23.57;15.13;;;;;;;7.47;nan;-24025.72;5053430;28;20646;-62
2022/01/05 09:07:25;;;;;;;24.90;15.67;;;;;;;8.10;nan;-24043.28;5035580;28;20183;-61
2022/01/05 09:09:50;;;;;;;22.33;16.07;;;;;;;8.19;nan;-24045.81;5053559;28;20190;-62
2022/01/05 09:12:16;;;;;;;21.97;14.53;;;;;;;8.08;nan;-24042.72;5053547;28;20257;-63
2022/01/05 09:14:42;;;;;;;28.63;15.80;;;;;;;8.13;nan;-24044.00;5053665;28;20248;-62
2022/01/05 09:17:08;;;;;;;28.07;16.73;;;;;;;8.08;nan;-24042.56;5046783;28;20561;-62
2022/01/05 09:19:34;;;;;;;26.37;15.83;;;;;;;8.21;nan;-24046.41;5053280;28;20735;-62
2022/01/05 09:22:00;;;;;;;26.10;16.60;;;;;;;7.93;nan;-24038.47;5053019;28;20171;-62
2022/01/05 09:24:26;;;;;;;22.43;15.07;;;;;;;8.64;nan;-24058.44;5053067;28;20178;-62
2022/01/05 09:26:52;;;;;;;28.80;16.57;;;;;;;8.40;nan;-24051.63;5052994;28;20248;-62
2022/01/05 09:29:18;;;;;;;29.30;17.23;;;;;;;8.48;nan;-24053.91;5053214;28;20207;-63
2022/01/05 09:31:44;;;;;;;32.93;17.57;;;;;;;8.62;nan;-24057.88;5052610;28;20171;-69
2022/01/05 09:34:11;;;;;;;30.23;16.13;;;;;;;8.71;nan;-24060.41;5052905;28;20209;-70
2022/01/05 09:36:42;;;;;;;29.83;17.00;;;;;;;8.96;nan;-24067.19;5052483;28;20167;-69
2022/01/05 09:41:59;;;;;;;27.50;16.80;;;;;;;9.36;nan;-24078.50;5053523;28;20220;-69
2022/01/05 09:44:31;;;;;;;24.50;16.27;;;;;;;8.83;nan;-24063.66;5049980;28;20257;-67
2022/01/05 09:47:29;;;;;;;26.52;16.60;;;;;;;9.62;nan;-24085.72;5051841;28;20625;-69
2022/01/05 09:50:04;;;;;;;28.10;16.53;;;;;;;9.24;nan;-24075.25;5018042;28;20201;-68
2022/01/05 09:52:34;;;;;;;33.85;15.70;;;;;;;9.42;nan;-24080.22;5052344;28;20593;-69
2022/01/05 09:55:02;;;;;;;28.48;16.15;;;;;;;9.90;nan;-24093.63;5051258;28;20257;-69
2022/01/05 09:57:28;;;;;;;24.75;14.98;;;;;;;10.04;nan;-24097.59;5052004;28;20228;-69
2022/01/05 09:59:56;;;;;;;29.13;15.55;;;;;;;10.27;nan;-24103.94;5034152;28;20685;-70
2022/01/05 10:02:22;;;;;;;25.60;14.77;;;;;;;10.46;nan;-24109.16;5050745;28;20324;-69
2022/01/05 10:04:47;;;;;;;24.95;14.50;;;;;;;10.53;nan;-24111.28;5051291;28;20254;-69
2022/01/05 10:07:14;;;;;;;26.23;14.77;;;;;;;10.40;nan;-24107.47;5051683;28;20171;-69
2022/01/05 10:09:44;;;;;;;22.98;14.85;;;;;;;10.97;nan;-24123.41;5051594;28;20175;-68
2022/01/05 10:12:12;;;;;;;21.23;13.98;;;;;;;11.03;nan;-24125.09;5051410;28;20241;-69
2022/01/05 10:14:42;;;;;;;21.05;15.38;;;;;;;10.73;nan;-24116.63;5033545;28;20670;-70
2022/01/05 10:17:24;;;;;;;21.77;14.73;;;;;;;11.07;nan;-24126.38;5050847;28;20162;-69
2022/01/05 10:20:06;;;;;;;25.33;15.85;;;;;;;11.10;nan;-24127.06;5051371;28;20253;-70
2022/01/05 10:22:41;;;;;;;24.42;15.73;;;;;;;11.37;nan;-24134.53;5050976;28;20162;-69
2022/01/05 10:25:10;;;;;;;23.77;14.98;;;;;;;11.59;nan;-24140.75;5051102;28;20181;-68
2022/01/05 10:27:36;;;;;;;22.58;14.40;;;;;;;11.77;nan;-24145.81;5050436;28;20181;-69
2022/01/05 10:30:10;;;;;;;24.20;14.43;;;;;;;11.87;nan;-24148.63;5050998;28;20179;-69
2022/01/05 10:32:37;;;;;;;19.58;13.10;;;;;;;12.05;nan;-24153.56;5050481;28;20182;-69
2022/01/05 10:35:10;;;;;;;21.38;13.48;;;;;;;11.66;nan;-24142.56;5050325;28;20175;-69
2022/01/05 10:37:39;;;;;;;25.02;13.38;;;;;;;11.91;nan;-24149.63;5032520;28;20226;-69
2022/01/05 10:40:14;;;;;;;17.65;11.57;;;;;;;11.79;nan;-24146.38;5050327;28;20193;-68
2022/01/05 10:42:42;;;;;;;19.60;12.43;;;;;;;11.87;nan;-24148.50;5050264;28;20599;-69
2022/01/05 10:45:11;;;;;;;19.52;12.32;;;;;;;11.70;nan;-24143.84;5033002;28;20193;-70
2022/01/05 10:47:37;;;;;;;20.15;12.07;;;;;;;11.97;nan;-24151.16;5050393;28;20621;-68
2022/01/05 10:50:05;;;;;;;22.85;13.18;;;;;;;11.81;nan;-24146.81;5050686;28;20205;-68
2022/01/05 10:52:35;;;;;;;18.63;12.05;;;;;;;11.56;nan;-24139.91;5050410;28;20230;-68
2022/01/05 10:55:18;;;;;;;21.60;11.88;;;;;;;11.68;nan;-24143.28;5050875;28;20249;-68
2022/01/05 10:58:15;;;;;;;18.38;11.32;;;;;;;11.68;nan;-24143.13;5050520;28;20610;-69
2022/01/05 11:00:54;;;;;;;19.25;11.65;;;;;;;11.84;nan;-24147.66;5033261;28;20325;-68
2022/01/05 11:03:38;;;;;;;15.63;11.00;;;;;;;11.94;nan;-24150.47;5050633;28;20174;-69
2022/01/05 11:06:08;;;;;;;17.80;12.15;;;;;;;11.78;nan;-24145.97;5050100;28;20657;-69
2022/01/05 11:08:55;;;;;;;17.65;11.60;;;;;;;11.94;nan;-24150.59;5050445;28;20210;-69
2022/01/05 11:11:43;;;;;;;17.73;11.50;;;;;;;12.14;nan;-24156.09;5050484;28;20163;-69
2022/01/05 11:14:16;;;;;;;23.30;11.60;;;;;;;12.19;nan;-24157.50;5050763;28;20185;-69
2022/01/05 11:16:45;;;;;;;19.00;12.20;;;;;;;12.18;nan;-24157.22;5050551;28;20163;-69
2022/01/05 11:19:22;;;;;;;16.70;11.52;;;;;;;12.32;nan;-24161.16;5050540;28;20170;-69
2022/01/05 11:22:15;;;;;;;17.13;11.35;;;;;;;12.14;nan;-24156.09;5050133;28;20177;-69
2022/01/05 11:24:51;;;;;;;19.92;12.18;;;;;;;11.76;nan;-24145.53;5049718;28;20244;-69
2022/01/05 11:27:25;;;;;;;19.48;12.38;;;;;;;12.01;nan;-24152.44;5049817;28;20173;-68
2022/01/05 11:29:51;;;;;;;15.18;10.55;;;;;;;12.33;nan;-24161.44;5048761;28;20242;-69
2022/01/05 11:32:20;;;;;;;19.38;11.63;;;;;;;12.43;nan;-24163.97;5049226;28;20258;-69
2022/01/05 11:34:46;;;;;;;22.98;11.80;;;;;;;12.29;nan;-24160.31;5049587;28;20167;-69
2022/01/05 11:37:12;;;;;;;21.15;12.02;;;;;;;12.41;nan;-24163.56;5049523;28;20668;-69